Aviation Digital Data Service (ADDS)

Output produced by METARs form (1814 UTC 20 January 2019)
found at http://www.aviationweather.gov/metar/data/
 
FBFT 201600Z 11007KT 9999 BKN025 25/15 Q1020
TAF FBFT 201200Z 2015/2024 09013KT 9999 SCT025
       
TAF FBFT 201200Z 2015/2024 09013KT 9999 SCT025
       
FBKE 201800Z VRB02KT 9999 SCT025 FEW035CB 21/21 Q1019
TAF FBKE 201200Z 2015/2024 11010KT 9999 SCT025 FEW035CB 
     PROB30 
     TEMPO 2015/2021 TSRA
       
FBMN 201800Z 02005KT 9999 FEW030 SCT070 27/19 Q1017
TAF FBMN 201200Z 2015/2024 21014KT 9999 SCT025 FEW035CB
       
FBSP 201600Z /////KT 9999 BKN025 27/17 Q1019
TAF FBSP 201200Z 2015/2024 09012KT 9999 SCT025
       
FBSK 201800Z 08010KT CAVOK 28/13 Q1019 NOSIG
TAF FBSK 201500Z 2018/2124 03005KT 9999 FEW040CB 
     BECMG 2018/2022 CAVOK
       
FBFT 201600Z 11007KT 9999 BKN025 25/15 Q1020
TAF FBFT 201200Z 2015/2024 09013KT 9999 SCT025
       
TAF FBFT 201200Z 2015/2024 09013KT 9999 SCT025